createdAt,value
2022-08-19T00:01:56.712Z,12.85
2022-08-19T00:04:30.706Z,16.15
2022-08-19T00:06:59.137Z,12.07
2022-08-19T00:09:26.309Z,13.93
2022-08-19T00:11:57.556Z,14.05
2022-08-19T00:14:26.280Z,15.60
2022-08-19T00:16:55.308Z,16.90
2022-08-19T00:19:23.999Z,13.93
2022-08-19T00:21:51.748Z,11.15
2022-08-19T00:24:18.656Z,15.80
2022-08-19T00:26:46.500Z,15.82
2022-08-19T00:29:18.258Z,11.52
2022-08-19T00:31:46.336Z,9.13
2022-08-19T00:34:15.375Z,10.13
2022-08-19T00:36:43.767Z,9.85
2022-08-19T00:39:12.376Z,10.27
2022-08-19T00:41:40.285Z,9.95
2022-08-19T00:44:13.573Z,10.15
2022-08-19T00:46:45.308Z,7.90
2022-08-19T00:49:52.118Z,8.13
2022-08-19T00:52:32.278Z,9.57
2022-08-19T00:55:01.187Z,12.32
2022-08-19T00:57:38.878Z,10.40
2022-08-19T01:00:13.768Z,8.85
2022-08-19T01:02:42.290Z,10.15
2022-08-19T01:05:14.475Z,14.20
2022-08-19T01:07:42.099Z,15.47
2022-08-19T01:10:13.958Z,15.98
2022-08-19T01:12:41.264Z,13.57
2022-08-19T01:15:12.939Z,13.43
2022-08-19T01:17:41.887Z,12.85
2022-08-19T01:20:20.738Z,11.15
2022-08-19T01:22:59.667Z,8.68
2022-08-19T01:25:33.149Z,9.63
2022-08-19T01:28:10.526Z,10.45
2022-08-19T01:30:38.415Z,11.50
2022-08-19T01:33:06.491Z,12.55
2022-08-19T01:35:33.695Z,11.25
2022-08-19T01:38:08.679Z,13.57
2022-08-19T01:40:40.858Z,8.20
2022-08-19T01:43:07.964Z,15.10
2022-08-19T01:45:36.816Z,12.25
2022-08-19T01:48:04.780Z,10.43
2022-08-19T01:50:33.938Z,10.25
2022-08-19T01:53:07.739Z,11.88
2022-08-19T01:55:41.390Z,12.75
2022-08-19T01:58:19.938Z,12.90
2022-08-19T02:00:47.450Z,15.85
2022-08-19T02:03:14.928Z,11.43
2022-08-19T02:05:42.852Z,11.60
2022-08-19T02:08:10.240Z,16.77
2022-08-19T02:10:44.035Z,11.70
2022-08-19T02:13:13.111Z,9.63
2022-08-19T02:15:40.686Z,12.57
2022-08-19T02:18:09.267Z,12.32
2022-08-19T02:20:38.695Z,10.77
2022-08-19T02:23:13.315Z,14.48
2022-08-19T02:25:41.305Z,11.05
2022-08-19T02:28:08.721Z,11.70
2022-08-19T02:30:35.538Z,12.55
2022-08-19T02:33:02.409Z,12.70
2022-08-19T02:35:29.244Z,14.95
2022-08-19T02:38:14.809Z,11.48
2022-08-19T02:40:42.030Z,13.18
2022-08-19T02:43:11.177Z,17.20
2022-08-19T02:45:42.645Z,11.43
2022-08-19T02:48:14.898Z,9.77
2022-08-19T02:50:55.656Z,14.90
2022-08-19T02:53:27.348Z,12.50
2022-08-19T02:55:54.739Z,17.83
2022-08-19T02:58:22.809Z,17.27
2022-08-19T03:00:54.270Z,13.35
2022-08-19T03:03:22.155Z,12.88
2022-08-19T03:05:56.450Z,12.00
2022-08-19T03:08:26.757Z,13.90
2022-08-19T03:10:53.999Z,16.63
2022-08-19T03:13:21.101Z,11.88
2022-08-19T03:15:49.451Z,16.30
2022-08-19T03:18:18.031Z,10.90
2022-08-19T03:20:49.776Z,12.00
2022-08-19T03:23:17.726Z,14.40
2022-08-19T03:26:05.622Z,12.07
2022-08-19T03:28:35.811Z,14.63
2022-08-19T03:31:44.644Z,10.55
2022-08-19T03:34:01.702Z,9.25
2022-08-19T03:36:30.560Z,16.23
2022-08-19T03:39:01.412Z,12.63
2022-08-19T03:41:44.670Z,13.48
2022-08-19T03:44:18.288Z,11.43
2022-08-19T03:46:51.334Z,16.05
2022-08-19T03:49:19.675Z,16.92
2022-08-19T03:51:48.880Z,12.25
2022-08-19T03:54:19.370Z,19.20
2022-08-19T03:56:49.159Z,13.45
2022-08-19T03:59:27.465Z,15.27
2022-08-19T04:02:00.936Z,24.77
2022-08-19T04:04:28.969Z,26.85
2022-08-19T04:06:57.672Z,22.02
2022-08-19T04:09:25.332Z,17.90
2022-08-19T04:11:55.831Z,28.35
2022-08-19T04:14:31.118Z,29.38
2022-08-19T04:17:01.088Z,25.10
2022-08-19T04:19:30.743Z,23.15
2022-08-19T04:21:58.247Z,26.27
2022-08-19T04:24:25.708Z,23.65
2022-08-19T04:26:52.821Z,25.98
2022-08-19T04:29:26.255Z,26.50
2022-08-19T04:31:55.403Z,24.38
2022-08-19T04:34:25.713Z,26.48
2022-08-19T04:36:55.587Z,24.27
2022-08-19T04:39:48.338Z,27.70
2022-08-19T04:42:36.751Z,23.95
2022-08-19T04:45:09.451Z,22.25
2022-08-19T04:47:47.490Z,28.85
2022-08-19T04:50:26.980Z,33.75
2022-08-19T04:52:54.639Z,34.30
2022-08-19T04:55:21.738Z,36.33
2022-08-19T04:57:48.597Z,41.60
2022-08-19T05:00:15.699Z,42.45
2022-08-19T05:02:42.600Z,46.60
2022-08-19T05:05:10.120Z,50.60
2022-08-19T05:07:37.587Z,43.90
2022-08-19T05:10:06.736Z,44.95
2022-08-19T05:12:34.102Z,50.95
2022-08-19T05:15:01.751Z,52.05
2022-08-19T05:17:33.322Z,53.50
2022-08-19T05:20:23.863Z,46.28
2022-08-19T05:22:50.873Z,50.63
2022-08-19T05:25:21.605Z,56.00
2022-08-19T05:27:49.321Z,55.65
2022-08-19T05:30:17.041Z,52.08
2022-08-19T05:32:44.755Z,56.90
2022-08-19T05:35:12.641Z,51.03
2022-08-19T05:37:41.247Z,56.00
2022-08-19T05:40:10.037Z,52.40
2022-08-19T05:42:37.021Z,52.17
2022-08-19T05:45:05.430Z,51.83
2022-08-19T05:47:33.108Z,55.17
2022-08-19T05:50:02.851Z,53.55
2022-08-19T05:52:32.547Z,53.80
2022-08-19T05:55:00.451Z,51.25
2022-08-19T05:57:29.859Z,55.67
2022-08-19T05:59:59.138Z,55.92
2022-08-19T06:02:29.037Z,52.40
2022-08-19T06:04:55.925Z,55.25
2022-08-19T06:07:23.445Z,49.97
2022-08-19T06:09:59.079Z,52.05
2022-08-19T06:12:34.071Z,53.78
2022-08-19T06:17:36.286Z,58.92
2022-08-19T06:20:11.225Z,58.20
2022-08-19T06:22:43.733Z,55.47
2022-08-19T06:25:11.709Z,55.13
2022-08-19T06:27:48.272Z,48.78
2022-08-19T06:30:25.963Z,57.42
2022-08-19T06:32:52.904Z,53.60
2022-08-19T06:35:20.270Z,58.55
2022-08-19T06:37:47.960Z,57.47
2022-08-19T06:40:16.063Z,51.30
2022-08-19T06:42:49.464Z,53.53
2022-08-19T06:45:24.684Z,49.92
2022-08-19T06:47:57.055Z,52.35
2022-08-19T06:50:27.044Z,53.72
2022-08-19T06:52:55.193Z,53.15
2022-08-19T06:55:22.228Z,53.35
2022-08-19T06:57:49.257Z,51.22
2022-08-19T07:00:17.027Z,47.40
2022-08-19T07:02:49.597Z,50.22
2022-08-19T07:05:23.090Z,50.78
2022-08-19T07:07:51.066Z,49.33
2022-08-19T07:10:18.818Z,47.17
2022-08-19T07:12:46.075Z,45.85
2022-08-19T07:15:13.363Z,47.65
2022-08-19T07:17:41.845Z,52.88
2022-08-19T07:20:10.195Z,45.42
2022-08-19T07:22:41.464Z,46.50
2022-08-19T07:25:10.693Z,44.17
2022-08-19T07:27:39.611Z,48.80
2022-08-19T07:30:12.263Z,48.63
2022-08-19T07:32:40.008Z,41.03
2022-08-19T07:35:08.332Z,39.45
2022-08-19T07:37:37.918Z,40.75
2022-08-19T07:40:07.771Z,46.10
2022-08-19T07:42:34.723Z,36.63
2022-08-19T07:45:01.610Z,38.13
2022-08-19T07:47:48.968Z,38.17
2022-08-19T07:50:16.910Z,37.70
2022-08-19T07:52:47.132Z,38.50
2022-08-19T07:55:41.471Z,40.33
2022-08-19T07:58:05.941Z,36.92
2022-08-19T08:00:32.989Z,40.58
2022-08-19T08:02:59.825Z,39.15
2022-08-19T08:05:45.676Z,42.85
2022-08-19T08:08:33.662Z,37.80
2022-08-19T08:11:01.515Z,35.85
2022-08-19T08:13:29.364Z,39.53
2022-08-19T08:15:57.596Z,37.58
2022-08-19T08:18:27.963Z,37.35
2022-08-19T08:23:26.790Z,39.28
2022-08-19T08:25:57.737Z,44.28
2022-08-19T08:28:29.497Z,42.30
2022-08-19T08:30:58.643Z,38.00
2022-08-19T08:33:34.830Z,38.25
2022-08-19T08:36:09.919Z,39.88
2022-08-19T08:38:41.819Z,42.00
2022-08-19T08:41:42.017Z,42.63
2022-08-19T08:44:23.757Z,41.28
2022-08-19T08:47:00.629Z,38.67
2022-08-19T08:49:43.529Z,37.08
2022-08-19T08:55:20.472Z,35.95
2022-08-19T08:57:52.219Z,35.10
2022-08-19T09:00:35.926Z,36.15
2022-08-19T09:03:07.427Z,37.78
2022-08-19T09:08:51.485Z,35.83
2022-08-19T09:11:44.744Z,35.75
2022-08-19T09:14:51.772Z,37.20
2022-08-19T09:17:28.429Z,33.20
2022-08-19T09:20:26.247Z,34.33
2022-08-19T09:22:53.276Z,31.80
2022-08-19T09:25:26.993Z,31.02
2022-08-19T09:28:02.438Z,32.72
2022-08-19T09:30:34.710Z,37.22
2022-08-19T09:33:02.216Z,35.00
2022-08-19T09:35:30.829Z,36.38
2022-08-19T09:38:00.090Z,34.40
2022-08-19T09:40:33.452Z,29.60
2022-08-19T09:43:11.842Z,16.35
2022-08-19T09:45:40.779Z,16.00
2022-08-19T09:48:07.684Z,14.98
2022-08-19T09:50:39.383Z,14.95
2022-08-19T09:53:19.551Z,15.57
2022-08-19T09:55:46.492Z,17.30
2022-08-19T09:58:13.374Z,16.05
2022-08-19T10:00:40.276Z,14.30
2022-08-19T10:03:07.219Z,15.13
2022-08-19T10:05:50.386Z,13.93
2022-08-19T10:08:30.258Z,14.75
2022-08-19T10:10:58.975Z,14.85
2022-08-19T10:13:30.153Z,12.00
2022-08-19T10:16:10.001Z,14.50
2022-08-19T10:18:38.669Z,10.77
2022-08-19T10:21:22.888Z,9.55
2022-08-19T10:23:57.373Z,7.97
2022-08-19T10:26:32.324Z,9.43
2022-08-19T10:29:00.164Z,11.90
2022-08-19T10:31:59.695Z,9.77
2022-08-19T10:34:27.431Z,7.28
2022-08-19T10:37:00.419Z,6.97
2022-08-19T10:39:31.470Z,20.10
2022-08-19T10:42:00.040Z,17.52
2022-08-19T10:44:32.591Z,12.60
2022-08-19T10:49:28.326Z,13.70
2022-08-19T10:52:19.398Z,7.88
2022-08-19T10:55:08.609Z,7.90
2022-08-19T10:58:04.114Z,8.40
2022-08-19T11:00:24.524Z,8.07
2022-08-19T11:02:52.489Z,8.43
2022-08-19T11:05:20.466Z,12.57
2022-08-19T11:07:52.715Z,10.17
2022-08-19T11:10:22.203Z,11.32
2022-08-19T11:12:49.610Z,12.18
2022-08-19T11:15:16.793Z,7.65
2022-08-19T11:17:44.917Z,8.40
2022-08-19T11:20:16.204Z,9.52
2022-08-19T11:22:43.804Z,10.55
2022-08-19T11:25:12.447Z,8.45
2022-08-19T11:27:47.053Z,8.10
2022-08-19T11:30:14.975Z,8.35
2022-08-19T11:32:48.605Z,9.02
2022-08-19T11:35:22.657Z,8.90
2022-08-19T11:37:50.485Z,8.00
2022-08-19T11:40:17.570Z,10.18
2022-08-19T11:42:57.597Z,6.72
2022-08-19T11:45:30.192Z,6.85
2022-08-19T11:47:58.122Z,7.50
2022-08-19T11:50:25.709Z,6.45
2022-08-19T11:52:57.173Z,7.10
2022-08-19T11:55:24.489Z,7.03
2022-08-19T11:57:51.324Z,9.32
2022-08-19T12:00:18.509Z,7.07
2022-08-19T12:02:45.428Z,6.10
2022-08-19T12:05:13.230Z,7.75
2022-08-19T12:07:44.647Z,8.13
2022-08-19T12:10:11.806Z,6.38
2022-08-19T12:12:43.617Z,6.63
2022-08-19T12:15:11.920Z,7.43
2022-08-19T12:17:39.632Z,7.68
2022-08-19T12:20:08.681Z,6.28
2022-08-19T12:22:37.729Z,10.35
2022-08-19T12:25:07.011Z,9.85
2022-08-19T12:27:40.869Z,9.02
2022-08-19T12:30:13.023Z,6.63
2022-08-19T12:32:40.585Z,7.20
2022-08-19T12:35:10.133Z,7.40
2022-08-19T12:37:37.141Z,11.38
2022-08-19T12:40:05.268Z,7.78
2022-08-19T12:42:32.323Z,7.70
2022-08-19T12:44:59.205Z,7.43
2022-08-19T12:47:27.411Z,9.57
2022-08-19T12:49:56.055Z,8.40
2022-08-19T12:52:28.264Z,8.98
2022-08-19T12:54:57.691Z,9.40
2022-08-19T12:57:32.801Z,8.25
2022-08-19T13:00:17.638Z,8.90
2022-08-19T13:02:47.507Z,9.25
2022-08-19T13:05:23.643Z,9.20
2022-08-19T13:07:53.455Z,9.05
2022-08-19T13:10:22.722Z,8.60
2022-08-19T13:12:51.947Z,11.23
2022-08-19T13:15:24.249Z,8.93
2022-08-19T13:17:53.848Z,9.48
2022-08-19T13:20:22.422Z,13.43
2022-08-19T13:22:49.826Z,8.32
2022-08-19T13:25:19.485Z,8.52
2022-08-19T13:27:47.987Z,12.45
2022-08-19T13:30:36.587Z,10.25
2022-08-19T13:33:15.294Z,9.10
2022-08-19T13:35:47.165Z,8.27
2022-08-19T13:38:16.444Z,11.05
2022-08-19T13:40:43.541Z,10.77
2022-08-19T13:43:22.370Z,9.27
2022-08-19T13:45:56.720Z,9.85
2022-08-19T13:48:27.190Z,10.13
2022-08-19T13:50:54.976Z,12.43
2022-08-19T13:53:21.952Z,11.55
2022-08-19T13:55:49.595Z,12.65
2022-08-19T13:58:16.425Z,10.73
2022-08-19T14:00:47.210Z,16.25
2022-08-19T14:03:15.403Z,10.40
2022-08-19T14:05:42.470Z,10.65
2022-08-19T14:08:10.227Z,12.48
2022-08-19T14:10:37.242Z,13.73
2022-08-19T14:13:05.231Z,16.33
2022-08-19T14:15:32.678Z,12.68
2022-08-19T14:17:59.543Z,13.35
2022-08-19T14:20:27.225Z,11.50
2022-08-19T14:22:55.708Z,12.13
2022-08-19T14:25:28.688Z,12.40
2022-08-19T14:27:57.219Z,10.70
2022-08-19T14:30:29.190Z,10.52
2022-08-19T14:32:59.037Z,11.63
2022-08-19T14:35:27.723Z,10.73
2022-08-19T14:37:55.985Z,10.65
2022-08-19T14:40:26.969Z,11.07
2022-08-19T14:43:05.438Z,10.15
2022-08-19T14:45:36.979Z,9.77
2022-08-19T14:48:06.122Z,10.20
2022-08-19T14:50:34.082Z,10.15
2022-08-19T14:53:11.888Z,8.93
2022-08-19T14:55:44.447Z,10.43
2022-08-19T14:58:29.137Z,8.85
2022-08-19T15:01:00.752Z,10.18
2022-08-19T15:03:28.810Z,7.95
2022-08-19T15:05:58.234Z,8.38
2022-08-19T15:08:26.402Z,8.95
2022-08-19T15:10:53.568Z,10.52
2022-08-19T15:13:20.522Z,9.63
2022-08-19T15:15:48.352Z,12.52
2022-08-19T15:18:15.723Z,9.05
2022-08-19T15:20:44.393Z,11.15
2022-08-19T15:23:18.117Z,15.77
2022-08-19T15:25:45.549Z,10.18
2022-08-19T15:28:12.443Z,12.05
2022-08-19T15:30:40.772Z,10.07
2022-08-19T15:33:08.288Z,12.10
2022-08-19T15:35:35.231Z,10.15
2022-08-19T15:38:02.124Z,10.27
2022-08-19T15:40:29.066Z,10.00
2022-08-19T15:42:58.730Z,11.48
2022-08-19T15:45:32.483Z,10.35
2022-08-19T15:48:01.293Z,11.27
2022-08-19T15:50:28.799Z,12.18
2022-08-19T15:53:03.594Z,9.63
2022-08-19T15:55:34.936Z,11.15
2022-08-19T15:58:29.382Z,9.05
2022-08-19T16:01:24.509Z,10.60
2022-08-19T16:04:15.907Z,12.98
2022-08-19T16:06:50.100Z,11.15
2022-08-19T16:09:23.493Z,12.38
2022-08-19T16:11:56.827Z,10.20
2022-08-19T16:14:26.471Z,10.18
2022-08-19T16:16:54.925Z,11.55
2022-08-19T16:19:21.921Z,12.13
2022-08-19T16:21:52.456Z,14.00
2022-08-19T16:24:22.353Z,11.70
2022-08-19T16:26:49.796Z,11.10
2022-08-19T16:29:27.754Z,12.40
2022-08-19T16:32:04.140Z,12.80
2022-08-19T16:34:32.109Z,11.80
2022-08-19T16:37:00.631Z,11.00
2022-08-19T16:39:27.492Z,15.68
2022-08-19T16:41:54.316Z,10.82
2022-08-19T16:44:21.968Z,8.70
2022-08-19T16:46:58.806Z,7.72
2022-08-19T16:49:52.821Z,8.13
2022-08-19T16:52:19.550Z,7.95
2022-08-19T16:54:47.413Z,10.75
2022-08-19T16:57:14.694Z,5.90
2022-08-19T16:59:48.176Z,5.68
2022-08-19T17:02:18.596Z,5.80
2022-08-19T17:04:55.961Z,5.65
2022-08-19T17:07:33.073Z,7.70
2022-08-19T17:10:02.417Z,10.48
2022-08-19T17:12:32.063Z,6.53
2022-08-19T17:15:01.558Z,5.68
2022-08-19T17:17:30.125Z,5.50
2022-08-19T17:19:59.133Z,7.05
2022-08-19T17:22:26.234Z,7.95
2022-08-19T17:24:53.113Z,6.53
2022-08-19T17:27:23.585Z,9.55
2022-08-19T17:29:50.477Z,9.15
2022-08-19T17:32:17.308Z,9.45
2022-08-19T17:34:54.067Z,10.70
2022-08-19T17:37:21.096Z,8.80
2022-08-19T17:39:47.942Z,8.63
2022-08-19T17:42:14.902Z,9.55
2022-08-19T17:44:42.078Z,9.70
2022-08-19T17:47:10.806Z,9.48
2022-08-19T17:49:37.594Z,11.82
2022-08-19T17:52:09.438Z,12.30
2022-08-19T17:54:36.882Z,11.52
2022-08-19T17:57:03.954Z,12.20
2022-08-19T17:59:31.089Z,20.90
2022-08-19T18:01:59.785Z,17.20
2022-08-19T18:04:27.455Z,19.35
2022-08-19T18:06:55.805Z,17.20
2022-08-19T18:09:42.247Z,19.55
2022-08-19T18:12:15.648Z,14.43
2022-08-19T18:17:17.250Z,12.73
2022-08-19T18:19:47.268Z,15.38
2022-08-19T18:22:24.173Z,14.68
2022-08-19T18:24:51.440Z,16.02
2022-08-19T18:27:18.474Z,14.60
2022-08-19T18:29:45.908Z,12.48
2022-08-19T18:32:16.367Z,14.40
2022-08-19T18:34:45.886Z,8.52
2022-08-19T18:37:12.869Z,12.55
2022-08-19T18:39:58.831Z,7.57
2022-08-19T18:42:44.171Z,11.82
2022-08-19T18:45:30.621Z,8.07
2022-08-19T18:48:26.422Z,6.43
2022-08-19T18:50:56.614Z,7.30
2022-08-19T18:53:24.167Z,5.72
2022-08-19T18:55:55.081Z,10.68
2022-08-19T18:58:33.080Z,8.90
2022-08-19T19:01:30.305Z,14.20
2022-08-19T19:04:03.639Z,19.17
2022-08-19T19:06:37.851Z,17.90
2022-08-19T19:09:05.864Z,15.15
2022-08-19T19:11:40.357Z,13.57
2022-08-19T19:14:18.993Z,10.15
2022-08-19T19:16:55.211Z,13.57
2022-08-19T19:19:22.021Z,14.10
2022-08-19T19:21:51.028Z,16.25
2022-08-19T19:24:30.933Z,18.55
2022-08-19T19:27:05.324Z,11.68
2022-08-19T19:29:32.930Z,9.27
2022-08-19T19:31:59.744Z,7.22
2022-08-19T19:34:29.233Z,10.15
2022-08-19T19:36:57.199Z,7.30
2022-08-19T19:39:30.533Z,5.68
2022-08-19T19:42:19.985Z,6.78
2022-08-19T19:44:54.923Z,6.57
2022-08-19T19:47:25.567Z,5.93
2022-08-19T19:50:13.213Z,8.02
2022-08-19T19:52:41.004Z,6.28
2022-08-19T19:55:17.798Z,6.13
2022-08-19T19:57:47.087Z,9.77
2022-08-19T20:00:18.264Z,5.78
2022-08-19T20:02:49.269Z,11.23
2022-08-19T20:05:20.959Z,9.00
2022-08-19T20:08:06.976Z,5.35
2022-08-19T20:10:33.920Z,8.55
2022-08-19T20:13:02.491Z,6.80
2022-08-19T20:15:32.276Z,9.95
2022-08-19T20:18:02.197Z,5.68
2022-08-19T20:20:30.172Z,8.55
2022-08-19T20:22:57.326Z,10.80
2022-08-19T20:25:24.884Z,8.73
2022-08-19T20:27:52.079Z,7.80
2022-08-19T20:30:21.754Z,6.82
2022-08-19T20:32:50.762Z,8.60
2022-08-19T20:35:21.006Z,10.00
2022-08-19T20:37:48.867Z,7.65
2022-08-19T20:40:21.565Z,8.77
2022-08-19T20:42:50.513Z,10.52
2022-08-19T20:45:33.276Z,11.25
2022-08-19T20:48:03.102Z,9.75
2022-08-19T20:50:35.901Z,9.85
2022-08-19T20:53:15.176Z,8.57
2022-08-19T20:55:49.170Z,9.20
2022-08-19T20:58:21.136Z,11.02
2022-08-19T21:00:49.511Z,10.57
2022-08-19T21:03:19.421Z,10.95
2022-08-19T21:05:49.619Z,10.52
2022-08-19T21:08:19.595Z,9.40
2022-08-19T21:10:49.149Z,10.00
2022-08-19T21:13:17.400Z,10.00
2022-08-19T21:15:45.226Z,11.10
2022-08-19T21:18:15.757Z,8.80
2022-08-19T21:20:46.922Z,10.88
2022-08-19T21:23:24.803Z,8.98
2022-08-19T21:25:54.917Z,9.00
2022-08-19T21:28:34.533Z,10.32
2022-08-19T21:31:05.702Z,9.45
2022-08-19T21:33:32.837Z,11.88
2022-08-19T21:36:00.674Z,11.80
2022-08-19T21:38:27.738Z,11.07
2022-08-19T21:40:55.318Z,9.52
2022-08-19T21:43:23.602Z,10.38
2022-08-19T21:45:50.955Z,9.80
2022-08-19T21:48:18.445Z,9.50
2022-08-19T21:50:48.412Z,9.60
2022-08-19T21:53:19.590Z,12.50
2022-08-19T21:55:53.569Z,12.30
2022-08-19T21:58:28.374Z,9.65
2022-08-19T22:00:59.453Z,10.15
2022-08-19T22:03:27.485Z,9.07
2022-08-19T22:05:54.304Z,8.75
2022-08-19T22:08:21.128Z,8.48
2022-08-19T22:10:49.603Z,8.90
2022-08-19T22:13:18.195Z,9.10
2022-08-19T22:15:46.137Z,12.48
2022-08-19T22:18:13.675Z,12.05
2022-08-19T22:20:40.962Z,11.93
2022-08-19T22:23:07.838Z,10.20
2022-08-19T22:25:40.403Z,11.18
2022-08-19T22:28:12.169Z,13.73
2022-08-19T22:30:42.389Z,13.85
2022-08-19T22:33:15.786Z,18.30
2022-08-19T22:35:43.956Z,17.67
2022-08-19T22:38:12.539Z,15.32
2022-08-19T22:40:48.317Z,15.95
2022-08-19T22:43:21.331Z,15.75
2022-08-19T22:48:21.780Z,20.15
2022-08-19T22:51:08.673Z,21.52
2022-08-19T22:53:39.131Z,17.58
2022-08-19T22:56:10.839Z,19.63
2022-08-19T22:58:42.305Z,19.73
2022-08-19T23:01:14.667Z,17.17
2022-08-19T23:03:57.569Z,21.30
2022-08-19T23:06:29.734Z,16.75
2022-08-19T23:09:00.345Z,17.48
2022-08-19T23:11:27.341Z,16.20
2022-08-19T23:13:54.259Z,19.17
2022-08-19T23:16:21.120Z,24.55
2022-08-19T23:18:48.478Z,20.08
2022-08-19T23:21:16.509Z,17.17
2022-08-19T23:23:43.550Z,21.10
2022-08-19T23:26:11.674Z,15.80
2022-08-19T23:28:57.860Z,19.48
2022-08-19T23:31:26.773Z,22.23
2022-08-19T23:33:53.571Z,18.58
2022-08-19T23:36:21.494Z,17.00
2022-08-19T23:38:51.899Z,21.38
2022-08-19T23:41:21.531Z,17.90
2022-08-19T23:43:51.452Z,17.23
2022-08-19T23:46:27.738Z,19.33
2022-08-19T23:48:56.500Z,17.35
2022-08-19T23:51:23.870Z,17.60
2022-08-19T23:53:50.684Z,17.10
2022-08-19T23:56:17.582Z,16.30
2022-08-19T23:58:45.453Z,19.35
